createdAt,value
2018-05-11T00:01:03.628Z,99.90
2018-05-11T00:03:32.017Z,99.90
2018-05-11T00:06:00.208Z,99.90
2018-05-11T00:08:28.364Z,99.90
2018-05-11T00:10:56.510Z,99.90
2018-05-11T00:13:24.684Z,99.90
2018-05-11T00:15:52.832Z,99.90
2018-05-11T00:18:21.001Z,99.90
2018-05-11T00:20:49.157Z,99.90
2018-05-11T00:23:17.337Z,99.90
2018-05-11T00:25:45.496Z,99.90
2018-05-11T00:28:13.677Z,99.90
2018-05-11T00:30:41.831Z,99.90
2018-05-11T00:33:10.009Z,99.90
2018-05-11T00:35:38.160Z,99.90
2018-05-11T00:38:06.348Z,99.90
2018-05-11T00:40:35.261Z,99.90
2018-05-11T00:43:03.445Z,99.90
2018-05-11T00:45:31.594Z,99.90
2018-05-11T00:47:59.771Z,99.90
2018-05-11T00:50:27.919Z,99.90
2018-05-11T00:52:56.864Z,99.90
2018-05-11T00:55:36.824Z,99.90
2018-05-11T00:58:05.004Z,99.90
2018-05-11T01:00:33.164Z,99.90
2018-05-11T01:03:01.342Z,99.90
2018-05-11T01:05:29.488Z,99.90
2018-05-11T01:07:57.669Z,99.90
2018-05-11T01:10:25.826Z,99.90
2018-05-11T01:12:54.004Z,99.90
2018-05-11T01:15:22.155Z,99.90
2018-05-11T01:17:51.094Z,99.90
2018-05-11T01:22:52.602Z,99.90
2018-05-11T01:25:20.758Z,99.90
2018-05-11T01:27:48.936Z,99.90
2018-05-11T01:30:17.084Z,99.90
2018-05-11T01:32:45.256Z,99.90
2018-05-11T01:35:13.412Z,99.90
2018-05-11T01:37:41.591Z,99.90
2018-05-11T01:40:09.750Z,99.90
2018-05-11T01:42:37.925Z,99.90
2018-05-11T01:45:06.107Z,99.90
2018-05-11T01:47:34.285Z,99.90
2018-05-11T01:50:02.456Z,99.90
2018-05-11T01:52:30.640Z,99.90
2018-05-11T01:54:58.791Z,99.90
2018-05-11T01:57:26.965Z,99.90
2018-05-11T01:59:55.119Z,99.90
2018-05-11T02:02:24.072Z,99.90
2018-05-11T02:04:52.232Z,99.90
2018-05-11T02:07:20.432Z,99.90
2018-05-11T02:09:48.590Z,99.90
2018-05-11T02:12:16.762Z,99.90
2018-05-11T02:14:45.781Z,99.90
2018-05-11T02:17:13.956Z,99.90
2018-05-11T02:19:42.110Z,99.90
2018-05-11T02:22:10.313Z,99.90
2018-05-11T02:24:38.467Z,99.90
2018-05-11T02:27:06.621Z,99.90
2018-05-11T02:29:34.804Z,99.90
2018-05-11T02:32:02.989Z,99.90
2018-05-11T02:34:31.147Z,99.90
2018-05-11T02:36:59.300Z,99.90
2018-05-11T02:39:28.162Z,99.90
2018-05-11T02:41:57.102Z,99.90
2018-05-11T02:44:25.271Z,99.90
2018-05-11T02:46:53.427Z,99.90
2018-05-11T02:49:21.622Z,99.90
2018-05-11T02:51:49.778Z,99.90
2018-05-11T02:54:17.961Z,99.90
2018-05-11T02:56:46.108Z,99.90
2018-05-11T02:59:14.286Z,99.90
2018-05-11T03:01:42.442Z,99.90
2018-05-11T03:04:11.393Z,99.90
2018-05-11T03:06:39.555Z,99.90
2018-05-11T03:09:07.736Z,99.90
2018-05-11T03:11:35.885Z,99.90
2018-05-11T03:14:04.066Z,99.90
2018-05-11T03:16:32.217Z,99.90
2018-05-11T03:19:00.401Z,99.90
2018-05-11T03:21:28.549Z,99.90
2018-05-11T03:23:57.494Z,99.90
2018-05-11T03:26:25.639Z,99.90
2018-05-11T03:28:53.824Z,99.90
2018-05-11T03:31:21.979Z,99.90
2018-05-11T03:33:50.156Z,99.90
2018-05-11T03:36:18.312Z,99.90
2018-05-11T03:38:46.489Z,99.90
2018-05-11T03:41:14.642Z,99.90
2018-05-11T03:43:42.819Z,99.90
2018-05-11T03:46:10.969Z,99.90
2018-05-11T03:48:39.160Z,99.90
2018-05-11T03:51:07.314Z,99.90
2018-05-11T03:53:35.494Z,99.90
2018-05-11T03:56:03.648Z,99.90
2018-05-11T03:58:31.823Z,99.90
2018-05-11T04:00:59.972Z,99.90
2018-05-11T04:03:39.853Z,99.90
2018-05-11T04:06:09.615Z,99.90
2018-05-11T04:08:44.681Z,99.90
2018-05-11T04:11:12.834Z,99.90
2018-05-11T04:13:41.015Z,99.90
2018-05-11T04:16:09.167Z,99.90
2018-05-11T04:18:38.112Z,99.90
2018-05-11T04:21:06.266Z,99.90
2018-05-11T04:23:34.439Z,99.90
2018-05-11T04:26:02.616Z,99.90
2018-05-11T04:28:30.765Z,99.90
2018-05-11T04:30:58.941Z,99.90
2018-05-11T04:33:27.097Z,99.90
2018-05-11T04:35:55.271Z,99.90
2018-05-11T04:38:24.193Z,99.90
2018-05-11T04:40:52.371Z,99.90
2018-05-11T04:43:20.543Z,99.90
2018-05-11T04:45:48.720Z,99.90
2018-05-11T04:48:16.873Z,99.90
2018-05-11T04:50:45.049Z,99.90
2018-05-11T04:53:13.202Z,99.90
2018-05-11T04:55:42.196Z,99.90
2018-05-11T04:58:10.359Z,99.90
2018-05-11T05:00:38.532Z,99.90
2018-05-11T05:03:06.692Z,99.90
2018-05-11T05:05:34.868Z,99.90
2018-05-11T05:08:03.015Z,99.90
2018-05-11T05:10:31.193Z,99.90
2018-05-11T05:12:59.352Z,99.90
2018-05-11T05:15:27.531Z,99.90
2018-05-11T05:17:55.692Z,99.90
2018-05-11T05:20:23.872Z,99.90
2018-05-11T05:22:52.030Z,99.90
2018-05-11T05:25:20.207Z,99.90
2018-05-11T05:27:48.367Z,99.90
2018-05-11T05:30:16.544Z,99.90
2018-05-11T05:32:44.700Z,99.90
2018-05-11T05:35:12.874Z,99.90
2018-05-11T05:37:41.025Z,99.90
2018-05-11T05:40:09.200Z,99.90
2018-05-11T05:42:38.270Z,99.90
2018-05-11T05:45:06.446Z,99.90
2018-05-11T05:47:34.596Z,99.90
2018-05-11T05:50:02.809Z,99.90
2018-05-11T05:52:30.960Z,99.90
2018-05-11T05:54:59.137Z,99.90
2018-05-11T05:57:27.285Z,99.90
2018-05-11T05:59:55.554Z,99.90
2018-05-11T06:02:23.643Z,99.90
2018-05-11T06:04:51.848Z,99.90
2018-05-11T06:07:20.771Z,99.90
2018-05-11T06:09:48.975Z,99.90
2018-05-11T06:12:17.184Z,99.90
2018-05-11T06:14:45.360Z,99.90
2018-05-11T06:17:13.513Z,99.90
2018-05-11T06:19:41.712Z,99.90
2018-05-11T06:22:09.864Z,99.90
2018-05-11T06:24:38.948Z,99.90
2018-05-11T06:27:07.097Z,99.90
2018-05-11T06:29:36.040Z,99.90
2018-05-11T06:32:04.184Z,99.90
2018-05-11T06:34:32.381Z,99.90
2018-05-11T06:37:01.300Z,99.90
2018-05-11T06:39:29.501Z,99.90
2018-05-11T06:41:57.690Z,99.90
2018-05-11T06:44:25.886Z,99.90
2018-05-11T06:46:54.323Z,99.90
2018-05-11T06:49:22.499Z,99.90
2018-05-11T06:51:51.444Z,99.90
2018-05-11T06:54:19.621Z,99.90
2018-05-11T06:56:48.407Z,99.90
2018-05-11T06:59:16.556Z,99.90
2018-05-11T07:01:44.737Z,99.90
2018-05-11T07:04:12.889Z,99.90
2018-05-11T07:06:41.073Z,99.90
2018-05-11T07:09:09.727Z,99.90
2018-05-11T07:11:37.919Z,99.90
2018-05-11T07:14:06.841Z,99.90
2018-05-11T07:16:35.129Z,99.90
2018-05-11T07:19:03.309Z,99.90
2018-05-11T07:21:31.517Z,99.90
2018-05-11T07:23:59.685Z,99.90
2018-05-11T07:26:27.881Z,99.90
2018-05-11T07:28:56.805Z,99.90
2018-05-11T07:31:24.979Z,99.90
2018-05-11T07:33:53.159Z,99.90
2018-05-11T07:36:21.329Z,99.90
2018-05-11T07:38:49.544Z,99.90
2018-05-11T07:41:17.752Z,99.90
2018-05-11T07:43:45.979Z,99.90
2018-05-11T07:46:14.812Z,99.90
2018-05-11T07:48:43.005Z,99.90
2018-05-11T07:51:11.206Z,99.90
2018-05-11T07:53:41.489Z,99.90
2018-05-11T07:56:09.700Z,99.90
2018-05-11T07:58:37.911Z,99.90
2018-05-11T08:01:06.112Z,99.90
2018-05-11T08:03:34.273Z,99.90
2018-05-11T08:06:02.457Z,99.90
2018-05-11T08:08:30.681Z,99.90
2018-05-11T08:10:59.009Z,99.90
2018-05-11T08:13:27.255Z,99.90
2018-05-11T08:15:55.525Z,99.90
2018-05-11T08:18:23.895Z,99.90
2018-05-11T08:20:52.112Z,99.90
2018-05-11T08:23:20.264Z,99.90
2018-05-11T08:25:48.459Z,99.90
2018-05-11T08:28:16.777Z,99.90
2018-05-11T08:30:44.970Z,99.90
2018-05-11T08:33:13.433Z,99.90
2018-05-11T08:35:41.617Z,99.90
2018-05-11T08:38:09.919Z,99.90
2018-05-11T08:40:38.347Z,99.90
2018-05-11T08:43:07.136Z,99.90
2018-05-11T08:45:35.362Z,99.90
2018-05-11T08:48:03.521Z,99.90
2018-05-11T08:50:35.431Z,99.90
2018-05-11T08:53:03.928Z,99.90
2018-05-11T08:55:34.036Z,99.90
2018-05-11T08:58:05.184Z,99.90
2018-05-11T09:00:33.366Z,99.90
2018-05-11T09:03:02.280Z,99.90
2018-05-11T09:05:30.387Z,99.90
2018-05-11T09:08:00.027Z,99.90
2018-05-11T09:10:28.235Z,99.90
2018-05-11T09:12:56.400Z,99.90
2018-05-11T09:15:24.580Z,99.90
2018-05-11T09:17:52.768Z,99.90
2018-05-11T09:20:20.926Z,99.90
2018-05-11T09:22:49.110Z,99.90
2018-05-11T09:25:17.271Z,99.90
2018-05-11T09:27:45.458Z,99.90
2018-05-11T09:30:13.626Z,99.90
2018-05-11T09:32:42.732Z,99.90
2018-05-11T09:35:10.891Z,99.90
2018-05-11T09:37:39.079Z,99.90
2018-05-11T09:40:07.236Z,99.90
2018-05-11T09:42:35.415Z,99.90
2018-05-11T09:45:03.572Z,99.90
2018-05-11T09:47:31.755Z,99.90
2018-05-11T09:50:00.815Z,99.90
2018-05-11T09:52:29.072Z,99.90
2018-05-11T09:54:57.290Z,99.90
2018-05-11T09:57:25.434Z,99.90
2018-05-11T09:59:53.590Z,99.90
2018-05-11T10:02:21.777Z,99.90
2018-05-11T10:04:49.948Z,99.90
2018-05-11T10:07:18.889Z,99.90
2018-05-11T10:09:47.045Z,99.90
2018-05-11T10:12:15.229Z,99.90
2018-05-11T10:14:43.385Z,99.90
2018-05-11T10:17:11.581Z,99.90
2018-05-11T10:19:39.740Z,99.90
2018-05-11T10:22:07.921Z,99.90
2018-05-11T10:24:36.071Z,99.90
2018-05-11T10:27:04.253Z,99.90
2018-05-11T10:29:32.407Z,99.90
2018-05-11T10:32:00.595Z,99.90
2018-05-11T10:34:28.780Z,99.90
2018-05-11T10:36:56.982Z,99.90
2018-05-11T10:39:25.152Z,99.90
2018-05-11T10:41:53.342Z,99.90
2018-05-11T10:44:22.333Z,99.90
2018-05-11T10:46:50.528Z,99.90
2018-05-11T10:49:18.694Z,99.90
2018-05-11T10:51:46.849Z,99.90
2018-05-11T10:54:15.033Z,99.90
2018-05-11T10:56:43.263Z,99.90
2018-05-11T10:59:11.453Z,99.90
2018-05-11T11:01:40.373Z,99.90
2018-05-11T11:04:08.570Z,99.90
2018-05-11T11:06:37.501Z,99.90
2018-05-11T11:09:06.504Z,99.90
2018-05-11T11:11:38.642Z,99.90
2018-05-11T11:14:06.824Z,99.90
2018-05-11T11:16:34.993Z,99.90
2018-05-11T11:19:03.195Z,99.90
2018-05-11T11:21:31.352Z,99.90
2018-05-11T11:23:59.535Z,99.90
2018-05-11T11:26:27.697Z,99.90
2018-05-11T11:28:55.885Z,99.90
2018-05-11T11:31:24.044Z,99.90
2018-05-11T11:33:52.234Z,99.90
2018-05-11T11:36:20.393Z,99.90
2018-05-11T11:38:48.579Z,99.90
2018-05-11T11:41:16.733Z,99.90
2018-05-11T11:43:44.916Z,99.90
2018-05-11T11:46:13.875Z,99.90
2018-05-11T11:48:42.065Z,99.90
2018-05-11T11:51:10.257Z,99.90
2018-05-11T11:53:38.446Z,99.90
2018-05-11T11:56:06.600Z,99.90
2018-05-11T11:58:34.784Z,99.90
2018-05-11T12:01:02.949Z,99.50
2018-05-11T12:03:31.171Z,99.40
2018-05-11T12:06:00.116Z,99.90
2018-05-11T12:08:28.300Z,99.40
2018-05-11T12:10:56.468Z,99.40
2018-05-11T12:13:24.657Z,99.50
2018-05-11T12:15:52.812Z,98.60
2018-05-11T12:18:21.002Z,99.20
2018-05-11T12:20:49.163Z,99.80
2018-05-11T12:23:17.345Z,98.90
2018-05-11T12:25:45.503Z,99.30
2018-05-11T12:28:13.685Z,99.80
2018-05-11T12:30:41.844Z,98.60
2018-05-11T12:33:10.093Z,99.40
2018-05-11T12:35:38.215Z,98.90
2018-05-11T12:38:06.394Z,98.40
2018-05-11T12:40:34.552Z,97.40
2018-05-11T12:43:02.737Z,97.70
2018-05-11T12:45:30.908Z,98.00
2018-05-11T12:47:59.098Z,97.70
2018-05-11T12:50:27.269Z,98.50
2018-05-11T12:52:55.573Z,97.40
2018-05-11T12:55:23.733Z,98.70
2018-05-11T12:57:51.925Z,98.30
2018-05-11T13:00:20.096Z,98.60
2018-05-11T13:02:48.314Z,97.00
2018-05-11T13:05:17.859Z,97.90
2018-05-11T13:07:46.025Z,97.40
2018-05-11T13:10:14.620Z,96.80
2018-05-11T13:12:42.781Z,97.30
2018-05-11T13:15:10.960Z,98.30
2018-05-11T13:17:39.121Z,97.00
2018-05-11T13:20:07.300Z,97.40
2018-05-11T13:22:35.456Z,97.90
2018-05-11T13:25:03.662Z,97.20
2018-05-11T13:27:32.230Z,98.50
2018-05-11T13:30:00.413Z,96.90
2018-05-11T13:32:28.569Z,96.50
2018-05-11T13:34:56.759Z,98.50
2018-05-11T13:37:24.929Z,97.30
2018-05-11T13:39:53.350Z,96.80
2018-05-11T13:42:22.280Z,97.10
2018-05-11T13:44:50.466Z,96.80
2018-05-11T13:47:18.630Z,96.90
2018-05-11T13:49:46.818Z,96.00
2018-05-11T13:52:15.052Z,96.10
2018-05-11T13:54:43.290Z,96.20
2018-05-11T13:57:11.452Z,96.80
2018-05-11T13:59:39.637Z,96.20
2018-05-11T14:02:08.700Z,96.10
2018-05-11T14:04:36.909Z,96.20
2018-05-11T14:07:05.076Z,95.80
2018-05-11T14:09:33.279Z,96.00
2018-05-11T14:12:01.446Z,94.70
2018-05-11T14:14:29.648Z,95.00
2018-05-11T14:16:57.808Z,95.90
2018-05-11T14:19:26.761Z,95.10
2018-05-11T14:21:54.921Z,95.10
2018-05-11T14:24:23.114Z,94.40
2018-05-11T14:26:51.288Z,94.60
2018-05-11T14:29:19.472Z,95.10
2018-05-11T14:31:47.661Z,95.10
2018-05-11T14:34:15.844Z,94.50
2018-05-11T14:36:44.769Z,93.20
2018-05-11T14:39:13.000Z,93.10
2018-05-11T14:41:41.147Z,94.00
2018-05-11T14:44:09.336Z,94.40
2018-05-11T14:46:37.502Z,91.90
2018-05-11T14:49:05.691Z,92.80
2018-05-11T14:51:33.852Z,93.10
2018-05-11T14:54:02.042Z,93.00
2018-05-11T14:56:30.228Z,92.70
2018-05-11T14:58:58.398Z,93.20
2018-05-11T15:01:26.578Z,92.50
2018-05-11T15:03:54.745Z,92.70
2018-05-11T15:06:22.931Z,93.50
2018-05-11T15:08:51.865Z,92.70
2018-05-11T15:11:20.059Z,92.60
2018-05-11T15:13:48.220Z,93.60
2018-05-11T15:16:16.408Z,92.00
2018-05-11T15:18:44.585Z,92.00
2018-05-11T15:21:12.774Z,92.10
2018-05-11T15:23:40.933Z,91.40
2018-05-11T15:26:09.131Z,91.20
2018-05-11T15:28:38.069Z,91.70
2018-05-11T15:31:06.284Z,92.00
2018-05-11T15:33:35.540Z,92.40
2018-05-11T15:36:05.005Z,91.90
2018-05-11T15:38:34.845Z,92.10
2018-05-11T15:41:03.022Z,92.00
2018-05-11T15:43:31.190Z,92.00
2018-05-11T15:45:59.373Z,92.30
2018-05-11T15:48:28.181Z,91.00
2018-05-11T15:50:56.365Z,91.10
2018-05-11T15:53:24.984Z,92.50
2018-05-11T15:55:54.016Z,91.80
2018-05-11T15:58:22.219Z,91.30
2018-05-11T16:00:50.997Z,91.20
2018-05-11T16:03:19.168Z,91.00
2018-05-11T16:05:47.412Z,91.30
2018-05-11T16:08:18.915Z,90.80
2018-05-11T16:10:47.147Z,91.10
2018-05-11T16:13:15.330Z,91.00
2018-05-11T16:15:43.511Z,92.00
2018-05-11T16:18:11.997Z,92.40
2018-05-11T16:20:41.467Z,92.70
2018-05-11T16:23:09.659Z,92.80
2018-05-11T16:25:38.405Z,91.80
2018-05-11T16:28:06.573Z,91.90
2018-05-11T16:30:34.804Z,91.60
2018-05-11T16:33:05.132Z,91.50
2018-05-11T16:35:33.325Z,91.50
2018-05-11T16:38:01.488Z,90.90
2018-05-11T16:40:32.379Z,90.50
2018-05-11T16:43:00.719Z,91.40
2018-05-11T16:45:30.324Z,91.50
2018-05-11T16:47:58.508Z,90.80
2018-05-11T16:50:26.736Z,91.50
2018-05-11T16:52:54.892Z,91.10
2018-05-11T16:55:23.840Z,92.00
2018-05-11T16:57:51.992Z,92.00
2018-05-11T17:00:20.178Z,92.10
2018-05-11T17:02:48.332Z,92.40
2018-05-11T17:05:16.508Z,92.20
2018-05-11T17:07:44.661Z,91.70
2018-05-11T17:10:12.845Z,92.10
2018-05-11T17:12:41.000Z,92.80
2018-05-11T17:15:09.946Z,92.40
2018-05-11T17:17:38.100Z,92.30
2018-05-11T17:20:06.255Z,92.60
2018-05-11T17:22:34.462Z,92.20
2018-05-11T17:25:03.426Z,92.80
2018-05-11T17:27:31.601Z,92.90
2018-05-11T17:29:59.803Z,93.40
2018-05-11T17:32:27.952Z,93.80
2018-05-11T17:34:56.118Z,94.00
2018-05-11T17:37:24.302Z,94.30
2018-05-11T17:39:52.462Z,95.10
2018-05-11T17:42:20.636Z,95.30
2018-05-11T17:44:48.784Z,95.50
2018-05-11T17:47:16.958Z,95.30
2018-05-11T17:49:45.110Z,95.40
2018-05-11T17:52:14.088Z,95.70
2018-05-11T17:54:42.249Z,95.70
2018-05-11T17:57:10.433Z,96.20
2018-05-11T17:59:38.588Z,96.60
2018-05-11T18:02:06.773Z,96.50
2018-05-11T18:04:34.920Z,96.80
2018-05-11T18:07:03.096Z,98.00
2018-05-11T18:09:31.253Z,98.70
2018-05-11T18:12:00.241Z,98.80
2018-05-11T18:14:28.373Z,98.70
2018-05-11T18:16:56.551Z,98.90
2018-05-11T18:19:24.699Z,99.30
2018-05-11T18:21:52.884Z,99.80
2018-05-11T18:24:21.072Z,99.90
2018-05-11T18:26:49.239Z,99.90
2018-05-11T18:29:17.406Z,99.90
2018-05-11T18:31:45.583Z,99.90
2018-05-11T18:34:13.749Z,99.90
2018-05-11T18:36:41.931Z,99.90
2018-05-11T18:39:10.093Z,99.90
2018-05-11T18:41:38.277Z,99.90
2018-05-11T18:44:06.437Z,99.90
2018-05-11T18:46:34.620Z,99.90
2018-05-11T18:49:02.826Z,99.90
2018-05-11T18:51:31.015Z,99.90
2018-05-11T18:53:59.619Z,99.90
2018-05-11T18:56:30.042Z,99.90
2018-05-11T18:59:02.004Z,99.90
2018-05-11T19:01:30.219Z,99.90
2018-05-11T19:03:58.369Z,99.90
2018-05-11T19:06:26.562Z,99.90
2018-05-11T19:08:54.747Z,99.90
2018-05-11T19:11:22.917Z,99.90
2018-05-11T19:13:51.069Z,99.90
2018-05-11T19:16:19.245Z,99.90
2018-05-11T19:18:47.397Z,99.90
2018-05-11T19:21:16.340Z,99.90
2018-05-11T19:23:44.497Z,99.90
2018-05-11T19:26:12.649Z,99.90
2018-05-11T19:28:40.824Z,99.90
2018-05-11T19:31:08.983Z,99.90
2018-05-11T19:33:38.708Z,99.90
2018-05-11T19:36:08.182Z,99.90
2018-05-11T19:38:36.950Z,99.90
2018-05-11T19:41:05.170Z,99.90
2018-05-11T19:43:33.781Z,99.90
2018-05-11T19:46:01.969Z,99.90
2018-05-11T19:48:31.766Z,99.90
2018-05-11T19:51:00.009Z,99.90
2018-05-11T19:53:28.956Z,99.90
2018-05-11T19:55:57.129Z,99.90
2018-05-11T19:58:25.328Z,99.90
2018-05-11T20:00:53.491Z,99.90
2018-05-11T20:03:21.713Z,99.90
2018-05-11T20:05:49.927Z,99.90
2018-05-11T20:08:19.407Z,99.90
2018-05-11T20:10:49.871Z,99.90
2018-05-11T20:13:18.918Z,99.90
2018-05-11T20:15:47.899Z,99.90
2018-05-11T20:18:16.934Z,99.90
2018-05-11T20:20:45.020Z,99.90
2018-05-11T20:23:13.208Z,99.90
2018-05-11T20:25:41.356Z,99.90
2018-05-11T20:28:10.124Z,99.90
2018-05-11T20:30:38.285Z,99.90
2018-05-11T20:33:06.455Z,99.90
2018-05-11T20:35:37.667Z,99.90
2018-05-11T20:38:05.850Z,99.90
2018-05-11T20:40:34.065Z,99.90
2018-05-11T20:43:02.281Z,99.90
2018-05-11T20:45:31.488Z,99.90
2018-05-11T20:47:59.696Z,99.90
2018-05-11T20:50:27.855Z,99.90
2018-05-11T20:52:56.062Z,99.90
2018-05-11T20:55:24.234Z,99.90
2018-05-11T20:57:52.463Z,99.90
2018-05-11T21:00:21.461Z,99.90
2018-05-11T21:02:49.648Z,99.90
2018-05-11T21:05:17.798Z,99.90
2018-05-11T21:07:46.499Z,99.90
2018-05-11T21:10:16.000Z,99.90
2018-05-11T21:12:44.192Z,99.90
2018-05-11T21:15:13.537Z,99.90
2018-05-11T21:17:41.712Z,99.90
2018-05-11T21:20:10.911Z,99.90
2018-05-11T21:22:40.269Z,99.90
2018-05-11T21:25:09.766Z,99.90
2018-05-11T21:27:41.442Z,99.90
2018-05-11T21:30:12.561Z,99.90
2018-05-11T21:32:41.557Z,99.90
2018-05-11T21:35:11.098Z,99.90
2018-05-11T21:37:39.282Z,99.90
2018-05-11T21:40:09.186Z,99.90
2018-05-11T21:42:38.272Z,99.90
2018-05-11T21:45:06.455Z,99.90
2018-05-11T21:47:34.647Z,99.90
2018-05-11T21:50:03.674Z,99.90
2018-05-11T21:52:31.843Z,99.90
2018-05-11T21:55:00.000Z,99.90
2018-05-11T21:57:28.153Z,99.90
2018-05-11T21:59:56.333Z,99.90
2018-05-11T22:02:25.098Z,99.90
2018-05-11T22:04:53.275Z,99.90
2018-05-11T22:07:21.488Z,99.90
2018-05-11T22:09:49.664Z,99.90
2018-05-11T22:12:17.833Z,99.90
2018-05-11T22:14:45.999Z,99.90
2018-05-11T22:17:14.189Z,99.90
2018-05-11T22:19:42.360Z,99.90
2018-05-11T22:22:10.514Z,99.90
2018-05-11T22:24:38.676Z,99.90
2018-05-11T22:27:06.824Z,99.90
2018-05-11T22:29:34.994Z,99.90
2018-05-11T22:32:03.941Z,99.90
2018-05-11T22:34:32.119Z,99.90
2018-05-11T22:37:00.272Z,99.90
2018-05-11T22:39:28.443Z,99.90
2018-05-11T22:41:56.587Z,99.90
2018-05-11T22:44:24.761Z,99.90
2018-05-11T22:46:53.645Z,99.90
2018-05-11T22:49:22.579Z,99.90
2018-05-11T22:51:50.735Z,99.90
2018-05-11T22:54:19.391Z,99.90
2018-05-11T22:56:48.302Z,99.90
2018-05-11T22:59:16.479Z,99.90
2018-05-11T23:01:44.629Z,99.90
2018-05-11T23:04:12.810Z,99.90
2018-05-11T23:06:40.955Z,99.90
2018-05-11T23:09:09.125Z,99.90
2018-05-11T23:11:37.715Z,99.90
2018-05-11T23:14:05.919Z,99.90
2018-05-11T23:16:34.068Z,99.90
2018-05-11T23:19:02.244Z,99.90
2018-05-11T23:21:31.941Z,99.90
2018-05-11T23:24:00.114Z,99.90
2018-05-11T23:26:28.261Z,99.90
2018-05-11T23:28:56.432Z,99.90
2018-05-11T23:31:24.573Z,99.90
2018-05-11T23:33:52.753Z,99.90
2018-05-11T23:36:20.901Z,99.90
2018-05-11T23:38:49.842Z,99.90
2018-05-11T23:41:17.986Z,99.90
2018-05-11T23:43:46.165Z,99.90
2018-05-11T23:46:14.316Z,99.90
2018-05-11T23:48:42.488Z,99.90
2018-05-11T23:51:11.400Z,99.90
2018-05-11T23:53:39.572Z,99.90
2018-05-11T23:56:07.717Z,99.90
2018-05-11T23:58:35.906Z,99.90
